Дата Пункты Температура Давл., мм. Влажн., % Ветер Погодные явления
Воздуха Воды Направл. Скорость
30.10.19 02:00 Одесса 8.0 14.0 761 92 Пн-З 3 02 ГОДИНИ
29.10.19 11:00 Одесса 9.0 14.0 761 94 Пн-З 1 23 ГОДИНИ
29.10.19 08:00 Одесса 9.0 14.0 760 90 Пн-З 1 20 ГОДИН
29.10.19 05:00 Одесса 10.0 14.0 759 92 Пн-З 1 17 ГОДИН
29.10.19 02:00 Одесса 11.0 14.0 760 88 Пн 2 14 ГОДИН
29.10.19 11:00 Одесса 11.0 14.0 760 87 Пн-С 3 11 ГОДИН
29.10.19 08:00 Одесса 10.0 14.0 759 96 Пн 2 08 ГОДИН
29.10.19 05:00 Одесса 9.0 14.0 759 95 Пн 2 05 ГОДИН
29.10.19 02:00 Одесса 10.0 14.0 758 95 Пн-З 1 02 ГОДИНИ
28.10.19 11:00 Одесса 10.0 14.0 758 96 Пн-З 2 23 ГОДИНИ
28.10.19 08:00 Одесса 10.0 14.0 758 95 З 1 20 ГОДИН
28.10.19 05:00 Одесса 12.0 14.0 758 92 Пн 0 17 ГОДИН
28.10.19 02:00 Одесса 14.0 14.0 758 87 Пд-С 1 14 ГОДИН
28.10.19 11:00 Одесса 15.0 14.0 759 82 З 1 11 ГОДИН
28.10.19 08:00 Одесса 9.0 14.0 759 97 Пн 0 08 ГОДИН
28.10.19 05:00 Одесса 7.0 14.0 759 96 З 2 05 ГОДИН
28.10.19 02:00 Одесса 9.0 14.0 759 95 З 1 02 ГОДИНИ
27.10.19 11:00 Одесса 11.0 14.0 760 89 З 3 23 ГОДИНИ
27.10.19 08:00 Одесса 12.0 14.0 761 92 Пд-З 2 20 ГОДИН
27.10.19 05:00 Одесса 12.0 13.0 761 88 Пд-З 2 17 ГОДИН
Количество строк
1 2 3 4 5 6 7 8 9 10
Page 9 of 553